sensor_id;sensor_type;location;lat;lon;timestamp;temperature;humidity
7216;DHT22;3649;48.798;9.798;2022-12-18T00:01:34;-2.30;95.90
7216;DHT22;3649;48.798;9.798;2022-12-18T00:04:04;-2.40;95.70
7216;DHT22;3649;48.798;9.798;2022-12-18T00:06:31;-2.40;96.00
7216;DHT22;3649;48.798;9.798;2022-12-18T00:08:59;-2.40;96.10
7216;DHT22;3649;48.798;9.798;2022-12-18T00:11:29;-2.40;96.10
7216;DHT22;3649;48.798;9.798;2022-12-18T00:13:57;-2.50;96.40
7216;DHT22;3649;48.798;9.798;2022-12-18T00:16:26;-2.50;96.10
7216;DHT22;3649;48.798;9.798;2022-12-18T00:18:55;-2.50;96.20
7216;DHT22;3649;48.798;9.798;2022-12-18T00:21:22;-2.50;96.10
7216;DHT22;3649;48.798;9.798;2022-12-18T00:23:50;-2.40;95.90
7216;DHT22;3649;48.798;9.798;2022-12-18T00:26:19;-2.40;95.90
7216;DHT22;3649;48.798;9.798;2022-12-18T00:28:47;-2.40;95.80
7216;DHT22;3649;48.798;9.798;2022-12-18T00:31:17;-2.40;95.80
7216;DHT22;3649;48.798;9.798;2022-12-18T00:33:45;-2.40;95.90
7216;DHT22;3649;48.798;9.798;2022-12-18T00:36:14;-2.50;96.00
7216;DHT22;3649;48.798;9.798;2022-12-18T00:38:42;-2.60;96.10
7216;DHT22;3649;48.798;9.798;2022-12-18T00:41:11;-2.60;96.20
7216;DHT22;3649;48.798;9.798;2022-12-18T00:43:39;-2.60;95.90
7216;DHT22;3649;48.798;9.798;2022-12-18T00:46:06;-2.50;95.80
7216;DHT22;3649;48.798;9.798;2022-12-18T00:48:35;-2.50;95.80
7216;DHT22;3649;48.798;9.798;2022-12-18T00:51:01;-2.50;95.80
7216;DHT22;3649;48.798;9.798;2022-12-18T00:53:28;-2.60;95.90
7216;DHT22;3649;48.798;9.798;2022-12-18T00:55:55;-2.50;95.70
7216;DHT22;3649;48.798;9.798;2022-12-18T00:58:22;-2.60;95.70
7216;DHT22;3649;48.798;9.798;2022-12-18T01:00:49;-2.30;95.90
7216;DHT22;3649;48.798;9.798;2022-12-18T01:03:15;-2.60;95.70
7216;DHT22;3649;48.798;9.798;2022-12-18T01:05:42;-2.50;95.80
7216;DHT22;3649;48.798;9.798;2022-12-18T01:08:09;-2.60;95.80
7216;DHT22;3649;48.798;9.798;2022-12-18T01:10:36;-2.70;95.90
7216;DHT22;3649;48.798;9.798;2022-12-18T01:13:06;-2.70;95.90
7216;DHT22;3649;48.798;9.798;2022-12-18T01:15:32;-2.70;95.80
7216;DHT22;3649;48.798;9.798;2022-12-18T01:17:59;-2.70;95.80
7216;DHT22;3649;48.798;9.798;2022-12-18T01:20:26;-2.70;95.80
7216;DHT22;3649;48.798;9.798;2022-12-18T01:22:53;-2.60;95.60
7216;DHT22;3649;48.798;9.798;2022-12-18T01:25:20;-2.60;95.60
7216;DHT22;3649;48.798;9.798;2022-12-18T01:27:46;-2.60;95.70
7216;DHT22;3649;48.798;9.798;2022-12-18T01:30:13;-2.70;95.80
7216;DHT22;3649;48.798;9.798;2022-12-18T01:32:40;-2.70;95.80
7216;DHT22;3649;48.798;9.798;2022-12-18T01:35:08;-2.60;95.70
7216;DHT22;3649;48.798;9.798;2022-12-18T01:37:35;-2.60;95.70
7216;DHT22;3649;48.798;9.798;2022-12-18T01:40:01;-2.60;95.80
7216;DHT22;3649;48.798;9.798;2022-12-18T01:42:28;-2.70;95.90
7216;DHT22;3649;48.798;9.798;2022-12-18T01:50:24;-2.50;95.70
7216;DHT22;3649;48.798;9.798;2022-12-18T01:52:58;-2.50;95.60
7216;DHT22;3649;48.798;9.798;2022-12-18T01:55:31;-2.50;95.80
7216;DHT22;3649;48.798;9.798;2022-12-18T01:57:59;-2.50;95.80
7216;DHT22;3649;48.798;9.798;2022-12-18T02:00:27;-2.60;95.80
7216;DHT22;3649;48.798;9.798;2022-12-18T02:02:54;-2.50;95.90
7216;DHT22;3649;48.798;9.798;2022-12-18T02:05:38;-2.60;95.80
7216;DHT22;3649;48.798;9.798;2022-12-18T02:19:03;-2.70;95.70
7216;DHT22;3649;48.798;9.798;2022-12-18T02:21:36;-2.70;95.70
7216;DHT22;3649;48.798;9.798;2022-12-18T02:27:09;-2.70;95.90
7216;DHT22;3649;48.798;9.798;2022-12-18T02:29:41;-1.80;96.20
7216;DHT22;3649;48.798;9.798;2022-12-18T02:32:47;-2.70;95.70
7216;DHT22;3649;48.798;9.798;2022-12-18T02:35:10;-2.60;95.70
7216;DHT22;3649;48.798;9.798;2022-12-18T02:37:39;-2.50;95.70
7216;DHT22;3649;48.798;9.798;2022-12-18T02:40:09;-2.60;95.70
7216;DHT22;3649;48.798;9.798;2022-12-18T02:42:37;-2.60;95.80
7216;DHT22;3649;48.798;9.798;2022-12-18T02:45:04;-2.60;95.90
7216;DHT22;3649;48.798;9.798;2022-12-18T02:47:34;-2.60;95.90
7216;DHT22;3649;48.798;9.798;2022-12-18T02:50:22;-2.60;95.70
7216;DHT22;3649;48.798;9.798;2022-12-18T02:57:58;-2.70;95.80
7216;DHT22;3649;48.798;9.798;2022-12-18T03:00:42;-2.70;95.80
7216;DHT22;3649;48.798;9.798;2022-12-18T03:03:14;-2.60;95.60
7216;DHT22;3649;48.798;9.798;2022-12-18T03:05:51;-2.60;95.70
7216;DHT22;3649;48.798;9.798;2022-12-18T03:08:21;-2.70;95.80
7216;DHT22;3649;48.798;9.798;2022-12-18T03:11:07;-2.60;95.80
7216;DHT22;3649;48.798;9.798;2022-12-18T03:13:51;-2.60;95.70
7216;DHT22;3649;48.798;9.798;2022-12-18T03:16:23;-2.60;95.70
7216;DHT22;3649;48.798;9.798;2022-12-18T03:19:01;-2.20;96.00
7216;DHT22;3649;48.798;9.798;2022-12-18T03:21:36;-2.50;95.80
7216;DHT22;3649;48.798;9.798;2022-12-18T03:24:06;-2.60;95.90
7216;DHT22;3649;48.798;9.798;2022-12-18T03:26:35;-2.70;96.00
7216;DHT22;3649;48.798;9.798;2022-12-18T03:29:08;-2.80;95.90
7216;DHT22;3649;48.798;9.798;2022-12-18T03:31:37;-2.70;95.90
7216;DHT22;3649;48.798;9.798;2022-12-18T03:34:12;-2.70;95.90
7216;DHT22;3649;48.798;9.798;2022-12-18T03:36:40;-2.70;95.90
7216;DHT22;3649;48.798;9.798;2022-12-18T03:39:07;-2.70;95.90
7216;DHT22;3649;48.798;9.798;2022-12-18T03:44:29;-2.60;96.10
7216;DHT22;3649;48.798;9.798;2022-12-18T03:47:21;-2.70;96.30
7216;DHT22;3649;48.798;9.798;2022-12-18T03:52:36;-2.50;96.30
7216;DHT22;3649;48.798;9.798;2022-12-18T03:55:05;-0.90;96.90
7216;DHT22;3649;48.798;9.798;2022-12-18T03:57:33;-2.70;96.10
7216;DHT22;3649;48.798;9.798;2022-12-18T04:00:11;-2.40;96.20
7216;DHT22;3649;48.798;9.798;2022-12-18T04:02:42;-2.50;96.10
7216;DHT22;3649;48.798;9.798;2022-12-18T04:05:11;-2.50;96.00
7216;DHT22;3649;48.798;9.798;2022-12-18T04:07:38;-2.50;96.00
7216;DHT22;3649;48.798;9.798;2022-12-18T04:10:07;-2.60;96.00
7216;DHT22;3649;48.798;9.798;2022-12-18T04:12:34;-2.60;96.10
7216;DHT22;3649;48.798;9.798;2022-12-18T04:15:04;-2.50;96.30
7216;DHT22;3649;48.798;9.798;2022-12-18T04:17:31;-2.60;95.90
7216;DHT22;3649;48.798;9.798;2022-12-18T04:19:58;-2.60;95.80
7216;DHT22;3649;48.798;9.798;2022-12-18T04:22:24;-2.70;95.80
7216;DHT22;3649;48.798;9.798;2022-12-18T04:24:51;-2.60;95.90
7216;DHT22;3649;48.798;9.798;2022-12-18T04:27:18;-2.60;95.80
7216;DHT22;3649;48.798;9.798;2022-12-18T04:29:45;-2.60;95.80
7216;DHT22;3649;48.798;9.798;2022-12-18T04:32:11;-2.60;95.80
7216;DHT22;3649;48.798;9.798;2022-12-18T04:34:38;-2.60;95.80
7216;DHT22;3649;48.798;9.798;2022-12-18T04:37:05;-2.50;95.80
7216;DHT22;3649;48.798;9.798;2022-12-18T04:39:32;-2.60;95.80
7216;DHT22;3649;48.798;9.798;2022-12-18T04:42:00;-2.60;95.80
7216;DHT22;3649;48.798;9.798;2022-12-18T04:44:26;-2.50;95.90
7216;DHT22;3649;48.798;9.798;2022-12-18T04:46:53;-2.60;95.80
7216;DHT22;3649;48.798;9.798;2022-12-18T04:49:21;-2.70;95.80
7216;DHT22;3649;48.798;9.798;2022-12-18T04:51:47;-2.70;95.80
7216;DHT22;3649;48.798;9.798;2022-12-18T04:54:14;-2.60;95.60
7216;DHT22;3649;48.798;9.798;2022-12-18T04:56:41;-2.70;95.70
7216;DHT22;3649;48.798;9.798;2022-12-18T04:59:08;-2.70;95.80
7216;DHT22;3649;48.798;9.798;2022-12-18T05:01:34;-2.80;95.80
7216;DHT22;3649;48.798;9.798;2022-12-18T05:04:02;-2.60;95.70
7216;DHT22;3649;48.798;9.798;2022-12-18T05:06:29;-2.60;95.60
7216;DHT22;3649;48.798;9.798;2022-12-18T05:08:56;-2.70;95.40
7216;DHT22;3649;48.798;9.798;2022-12-18T05:11:23;-2.70;95.50
7216;DHT22;3649;48.798;9.798;2022-12-18T05:13:50;-2.70;95.40
7216;DHT22;3649;48.798;9.798;2022-12-18T05:16:16;-0.90;96.10
7216;DHT22;3649;48.798;9.798;2022-12-18T05:18:43;-2.90;95.40
7216;DHT22;3649;48.798;9.798;2022-12-18T05:21:10;-3.00;95.60
7216;DHT22;3649;48.798;9.798;2022-12-18T05:23:37;-3.10;95.30
7216;DHT22;3649;48.798;9.798;2022-12-18T05:26:06;-3.10;95.30
7216;DHT22;3649;48.798;9.798;2022-12-18T05:28:35;-3.10;95.30
7216;DHT22;3649;48.798;9.798;2022-12-18T05:31:05;-3.10;95.30
7216;DHT22;3649;48.798;9.798;2022-12-18T05:33:34;-3.10;95.20
7216;DHT22;3649;48.798;9.798;2022-12-18T05:36:02;-3.10;95.20
7216;DHT22;3649;48.798;9.798;2022-12-18T05:38:30;-3.00;95.20
7216;DHT22;3649;48.798;9.798;2022-12-18T05:40:58;-2.90;95.20
7216;DHT22;3649;48.798;9.798;2022-12-18T05:43:26;-3.00;95.20
7216;DHT22;3649;48.798;9.798;2022-12-18T05:45:54;-3.10;95.20
7216;DHT22;3649;48.798;9.798;2022-12-18T05:48:21;-3.10;95.10
7216;DHT22;3649;48.798;9.798;2022-12-18T05:50:49;-3.20;95.10
7216;DHT22;3649;48.798;9.798;2022-12-18T05:53:18;-3.00;95.10
7216;DHT22;3649;48.798;9.798;2022-12-18T05:55:46;-3.00;95.00
7216;DHT22;3649;48.798;9.798;2022-12-18T05:58:14;-3.00;95.10
7216;DHT22;3649;48.798;9.798;2022-12-18T06:00:43;-3.00;95.20
7216;DHT22;3649;48.798;9.798;2022-12-18T06:03:11;-3.10;95.30
7216;DHT22;3649;48.798;9.798;2022-12-18T06:05:41;-3.10;95.40
7216;DHT22;3649;48.798;9.798;2022-12-18T06:08:10;-3.10;95.40
7216;DHT22;3649;48.798;9.798;2022-12-18T06:10:37;-3.00;95.20
7216;DHT22;3649;48.798;9.798;2022-12-18T06:13:05;-3.00;95.20
7216;DHT22;3649;48.798;9.798;2022-12-18T06:15:32;-3.00;95.30
7216;DHT22;3649;48.798;9.798;2022-12-18T06:18:00;-2.20;95.60
7216;DHT22;3649;48.798;9.798;2022-12-18T06:20:27;-3.20;95.10
7216;DHT22;3649;48.798;9.798;2022-12-18T06:22:59;-3.20;95.10
7216;DHT22;3649;48.798;9.798;2022-12-18T06:25:26;-3.30;94.90
7216;DHT22;3649;48.798;9.798;2022-12-18T06:27:53;-3.40;94.90
7216;DHT22;3649;48.798;9.798;2022-12-18T06:30:20;-3.40;95.00
7216;DHT22;3649;48.798;9.798;2022-12-18T06:32:48;-3.40;95.10
7216;DHT22;3649;48.798;9.798;2022-12-18T06:35:22;-3.40;95.20
7216;DHT22;3649;48.798;9.798;2022-12-18T06:37:49;-3.40;95.00
7216;DHT22;3649;48.798;9.798;2022-12-18T06:40:16;-3.40;94.90
7216;DHT22;3649;48.798;9.798;2022-12-18T06:42:43;-3.50;95.00
7216;DHT22;3649;48.798;9.798;2022-12-18T06:45:10;-1.30;96.10
7216;DHT22;3649;48.798;9.798;2022-12-18T06:47:37;-3.40;95.00
7216;DHT22;3649;48.798;9.798;2022-12-18T06:50:04;-3.40;94.70
7216;DHT22;3649;48.798;9.798;2022-12-18T06:52:32;-3.30;94.70
7216;DHT22;3649;48.798;9.798;2022-12-18T06:55:00;-3.40;94.70
7216;DHT22;3649;48.798;9.798;2022-12-18T06:57:27;-3.40;94.70
7216;DHT22;3649;48.798;9.798;2022-12-18T06:59:53;-3.50;94.80
7216;DHT22;3649;48.798;9.798;2022-12-18T07:02:21;-3.60;94.90
7216;DHT22;3649;48.798;9.798;2022-12-18T07:04:48;-3.40;95.00
7216;DHT22;3649;48.798;9.798;2022-12-18T07:07:14;-3.50;94.80
7216;DHT22;3649;48.798;9.798;2022-12-18T07:09:41;-3.50;94.80
7216;DHT22;3649;48.798;9.798;2022-12-18T07:12:08;-3.50;94.80
7216;DHT22;3649;48.798;9.798;2022-12-18T07:14:35;-3.50;94.90
7216;DHT22;3649;48.798;9.798;2022-12-18T07:17:02;-3.50;94.90
7216;DHT22;3649;48.798;9.798;2022-12-18T07:19:29;-3.40;94.80
7216;DHT22;3649;48.798;9.798;2022-12-18T07:21:56;-3.40;94.80
7216;DHT22;3649;48.798;9.798;2022-12-18T07:24:23;-3.40;94.70
7216;DHT22;3649;48.798;9.798;2022-12-18T07:26:50;-3.40;94.90
7216;DHT22;3649;48.798;9.798;2022-12-18T07:29:17;-2.60;95.30
7216;DHT22;3649;48.798;9.798;2022-12-18T07:31:43;-3.50;95.00
7216;DHT22;3649;48.798;9.798;2022-12-18T07:34:14;-3.60;94.90
7216;DHT22;3649;48.798;9.798;2022-12-18T07:36:41;-3.50;94.90
7216;DHT22;3649;48.798;9.798;2022-12-18T07:39:10;-3.50;94.70
7216;DHT22;3649;48.798;9.798;2022-12-18T07:41:37;-3.50;94.70
7216;DHT22;3649;48.798;9.798;2022-12-18T07:44:11;-3.50;94.80
7216;DHT22;3649;48.798;9.798;2022-12-18T07:46:38;-2.60;95.30
7216;DHT22;3649;48.798;9.798;2022-12-18T07:49:05;-3.50;94.90
7216;DHT22;3649;48.798;9.798;2022-12-18T07:51:32;-3.50;94.80
7216;DHT22;3649;48.798;9.798;2022-12-18T07:53:58;-3.50;94.90
7216;DHT22;3649;48.798;9.798;2022-12-18T07:56:25;-3.50;94.80
7216;DHT22;3649;48.798;9.798;2022-12-18T07:58:56;-3.40;94.70
7216;DHT22;3649;48.798;9.798;2022-12-18T08:01:23;-3.40;94.70
7216;DHT22;3649;48.798;9.798;2022-12-18T08:03:51;-3.40;94.60
7216;DHT22;3649;48.798;9.798;2022-12-18T08:06:18;-3.30;94.70
7216;DHT22;3649;48.798;9.798;2022-12-18T08:08:54;-3.40;94.80
7216;DHT22;3649;48.798;9.798;2022-12-18T08:11:23;-3.30;95.00
7216;DHT22;3649;48.798;9.798;2022-12-18T08:13:51;-3.30;95.10
7216;DHT22;3649;48.798;9.798;2022-12-18T08:16:18;-3.30;95.40
7216;DHT22;3649;48.798;9.798;2022-12-18T08:18:46;-3.30;95.40
7216;DHT22;3649;48.798;9.798;2022-12-18T08:21:18;-3.30;95.40
7216;DHT22;3649;48.798;9.798;2022-12-18T08:23:49;-3.20;95.40
7216;DHT22;3649;48.798;9.798;2022-12-18T08:26:17;-3.10;95.40
7216;DHT22;3649;48.798;9.798;2022-12-18T08:28:44;-3.00;95.50
7216;DHT22;3649;48.798;9.798;2022-12-18T08:31:11;-3.10;95.70
7216;DHT22;3649;48.798;9.798;2022-12-18T08:33:40;-2.90;95.80
7216;DHT22;3649;48.798;9.798;2022-12-18T08:36:09;-2.80;95.90
7216;DHT22;3649;48.798;9.798;2022-12-18T08:38:36;-2.70;96.20
7216;DHT22;3649;48.798;9.798;2022-12-18T08:41:05;-2.70;96.30
7216;DHT22;3649;48.798;9.798;2022-12-18T08:43:32;-2.70;96.50
7216;DHT22;3649;48.798;9.798;2022-12-18T08:46:18;-2.70;96.60
7216;DHT22;3649;48.798;9.798;2022-12-18T08:48:46;-2.60;96.90
7216;DHT22;3649;48.798;9.798;2022-12-18T08:51:15;-2.40;96.90
7216;DHT22;3649;48.798;9.798;2022-12-18T08:53:42;-2.40;96.90
7216;DHT22;3649;48.798;9.798;2022-12-18T08:56:09;-2.30;97.00
7216;DHT22;3649;48.798;9.798;2022-12-18T08:58:36;-2.20;97.20
7216;DHT22;3649;48.798;9.798;2022-12-18T09:01:05;-2.10;97.20
7216;DHT22;3649;48.798;9.798;2022-12-18T09:03:33;-2.00;97.20
7216;DHT22;3649;48.798;9.798;2022-12-18T09:06:00;-2.00;97.30
7216;DHT22;3649;48.798;9.798;2022-12-18T09:08:27;-2.00;97.40
7216;DHT22;3649;48.798;9.798;2022-12-18T09:10:54;-1.40;97.80
7216;DHT22;3649;48.798;9.798;2022-12-18T09:13:22;-1.80;97.60
7216;DHT22;3649;48.798;9.798;2022-12-18T09:15:53;-1.60;97.40
7216;DHT22;3649;48.798;9.798;2022-12-18T09:18:21;-1.70;97.40
7216;DHT22;3649;48.798;9.798;2022-12-18T09:20:49;-1.70;97.60
7216;DHT22;3649;48.798;9.798;2022-12-18T09:23:18;-1.70;97.80
7216;DHT22;3649;48.798;9.798;2022-12-18T09:25:44;-1.70;97.90
7216;DHT22;3649;48.798;9.798;2022-12-18T09:28:13;-1.60;98.10
7216;DHT22;3649;48.798;9.798;2022-12-18T09:30:43;-1.50;98.10
7216;DHT22;3649;48.798;9.798;2022-12-18T09:33:10;-1.40;98.30
7216;DHT22;3649;48.798;9.798;2022-12-18T09:35:38;-1.30;98.20
7216;DHT22;3649;48.798;9.798;2022-12-18T09:38:06;-1.30;98.40
7216;DHT22;3649;48.798;9.798;2022-12-18T09:40:42;-1.20;98.60
7216;DHT22;3649;48.798;9.798;2022-12-18T09:43:16;-1.20;98.60
7216;DHT22;3649;48.798;9.798;2022-12-18T09:45:49;-1.10;98.80
7216;DHT22;3649;48.798;9.798;2022-12-18T09:48:22;-1.00;98.90
7216;DHT22;3649;48.798;9.798;2022-12-18T09:50:50;-0.70;99.00
7216;DHT22;3649;48.798;9.798;2022-12-18T09:53:26;-0.60;99.10
7216;DHT22;3649;48.798;9.798;2022-12-18T09:55:54;-0.60;99.20
7216;DHT22;3649;48.798;9.798;2022-12-18T10:00:58;-0.40;99.30
7216;DHT22;3649;48.798;9.798;2022-12-18T10:03:25;-0.40;99.90
7216;DHT22;3649;48.798;9.798;2022-12-18T10:06:12;-0.30;99.60
7216;DHT22;3649;48.798;9.798;2022-12-18T10:17:32;0.00;99.90
7216;DHT22;3649;48.798;9.798;2022-12-18T10:22:51;0.00;99.90
7216;DHT22;3649;48.798;9.798;2022-12-18T10:25:26;0.20;99.90
7216;DHT22;3649;48.798;9.798;2022-12-18T10:27:58;0.20;99.90
7216;DHT22;3649;48.798;9.798;2022-12-18T10:30:26;0.40;99.90
7216;DHT22;3649;48.798;9.798;2022-12-18T10:32:53;0.40;99.90
7216;DHT22;3649;48.798;9.798;2022-12-18T10:35:24;0.50;99.90
7216;DHT22;3649;48.798;9.798;2022-12-18T10:38:24;0.60;99.90
7216;DHT22;3649;48.798;9.798;2022-12-18T10:43:32;0.60;99.90
7216;DHT22;3649;48.798;9.798;2022-12-18T10:46:00;0.70;99.90
7216;DHT22;3649;48.798;9.798;2022-12-18T10:48:28;0.60;99.90
7216;DHT22;3649;48.798;9.798;2022-12-18T10:50:57;0.70;99.90
7216;DHT22;3649;48.798;9.798;2022-12-18T10:53:41;0.90;99.90
7216;DHT22;3649;48.798;9.798;2022-12-18T10:56:08;1.00;99.90
7216;DHT22;3649;48.798;9.798;2022-12-18T10:58:37;1.00;99.90
7216;DHT22;3649;48.798;9.798;2022-12-18T11:03:35;1.10;99.90
7216;DHT22;3649;48.798;9.798;2022-12-18T11:06:11;1.10;99.90
7216;DHT22;3649;48.798;9.798;2022-12-18T11:08:40;1.10;99.90
7216;DHT22;3649;48.798;9.798;2022-12-18T11:11:19;1.10;99.90
7216;DHT22;3649;48.798;9.798;2022-12-18T11:14:04;1.20;99.90
7216;DHT22;3649;48.798;9.798;2022-12-18T11:16:42;2.60;99.90
7216;DHT22;3649;48.798;9.798;2022-12-18T11:19:33;1.30;99.90
7216;DHT22;3649;48.798;9.798;2022-12-18T11:22:03;1.30;99.90
7216;DHT22;3649;48.798;9.798;2022-12-18T11:25:37;1.30;99.90
7216;DHT22;3649;48.798;9.798;2022-12-18T11:28:05;1.40;99.90
7216;DHT22;3649;48.798;9.798;2022-12-18T11:30:35;1.40;99.90
7216;DHT22;3649;48.798;9.798;2022-12-18T11:33:19;1.50;99.90
7216;DHT22;3649;48.798;9.798;2022-12-18T11:35:57;1.60;99.90
7216;DHT22;3649;48.798;9.798;2022-12-18T11:38:35;1.60;99.90
7216;DHT22;3649;48.798;9.798;2022-12-18T11:41:07;1.70;99.90
7216;DHT22;3649;48.798;9.798;2022-12-18T11:43:44;2.40;99.90
7216;DHT22;3649;48.798;9.798;2022-12-18T11:46:18;1.70;99.90
7216;DHT22;3649;48.798;9.798;2022-12-18T11:49:03;1.70;99.90
7216;DHT22;3649;48.798;9.798;2022-12-18T11:51:41;1.70;99.90
7216;DHT22;3649;48.798;9.798;2022-12-18T11:54:15;1.70;99.90
7216;DHT22;3649;48.798;9.798;2022-12-18T11:56:51;3.10;99.90
7216;DHT22;3649;48.798;9.798;2022-12-18T12:00:02;1.90;99.90
7216;DHT22;3649;48.798;9.798;2022-12-18T12:05:20;2.00;99.90
7216;DHT22;3649;48.798;9.798;2022-12-18T12:08:02;2.10;99.90
7216;DHT22;3649;48.798;9.798;2022-12-18T12:24:18;2.20;99.90
7216;DHT22;3649;48.798;9.798;2022-12-18T12:27:10;2.30;99.90
7216;DHT22;3649;48.798;9.798;2022-12-18T12:30:09;2.30;99.90
7216;DHT22;3649;48.798;9.798;2022-12-18T12:33:07;2.20;99.90
7216;DHT22;3649;48.798;9.798;2022-12-18T12:35:52;2.20;99.90
7216;DHT22;3649;48.798;9.798;2022-12-18T12:38:37;2.20;99.90
7216;DHT22;3649;48.798;9.798;2022-12-18T12:41:13;2.10;99.90
7216;DHT22;3649;48.798;9.798;2022-12-18T12:44:04;2.20;99.90
7216;DHT22;3649;48.798;9.798;2022-12-18T12:46:37;2.20;99.90
7216;DHT22;3649;48.798;9.798;2022-12-18T12:49:26;2.20;99.90
7216;DHT22;3649;48.798;9.798;2022-12-18T12:52:03;2.20;99.90
7216;DHT22;3649;48.798;9.798;2022-12-18T12:54:32;2.20;99.90
7216;DHT22;3649;48.798;9.798;2022-12-18T12:57:12;2.30;99.90
7216;DHT22;3649;48.798;9.798;2022-12-18T13:00:11;2.20;99.90
7216;DHT22;3649;48.798;9.798;2022-12-18T13:02:59;2.10;99.90
7216;DHT22;3649;48.798;9.798;2022-12-18T13:08:10;2.20;99.90
7216;DHT22;3649;48.798;9.798;2022-12-18T13:10:41;2.40;99.90
7216;DHT22;3649;48.798;9.798;2022-12-18T13:13:14;2.20;99.90
7216;DHT22;3649;48.798;9.798;2022-12-18T13:16:06;2.20;99.90
7216;DHT22;3649;48.798;9.798;2022-12-18T13:18:34;2.20;99.90
7216;DHT22;3649;48.798;9.798;2022-12-18T13:21:10;2.20;99.90
7216;DHT22;3649;48.798;9.798;2022-12-18T13:23:41;2.20;99.90
7216;DHT22;3649;48.798;9.798;2022-12-18T13:31:14;2.40;99.90
7216;DHT22;3649;48.798;9.798;2022-12-18T13:33:43;2.40;99.90
7216;DHT22;3649;48.798;9.798;2022-12-18T13:36:32;2.40;99.90
7216;DHT22;3649;48.798;9.798;2022-12-18T13:41:50;2.50;99.90
7216;DHT22;3649;48.798;9.798;2022-12-18T13:46:54;2.50;99.90
7216;DHT22;3649;48.798;9.798;2022-12-18T13:49:39;2.50;99.90
7216;DHT22;3649;48.798;9.798;2022-12-18T13:52:21;2.50;99.90
7216;DHT22;3649;48.798;9.798;2022-12-18T13:54:54;2.50;99.90
7216;DHT22;3649;48.798;9.798;2022-12-18T13:57:33;2.50;99.90
7216;DHT22;3649;48.798;9.798;2022-12-18T14:00:27;2.50;99.90
7216;DHT22;3649;48.798;9.798;2022-12-18T14:02:58;2.50;99.90
7216;DHT22;3649;48.798;9.798;2022-12-18T14:05:36;2.60;99.90
7216;DHT22;3649;48.798;9.798;2022-12-18T14:08:10;2.60;99.90
7216;DHT22;3649;48.798;9.798;2022-12-18T14:10:46;2.70;99.90
7216;DHT22;3649;48.798;9.798;2022-12-18T14:13:30;2.70;99.90
7216;DHT22;3649;48.798;9.798;2022-12-18T14:16:00;2.70;99.90
7216;DHT22;3649;48.798;9.798;2022-12-18T14:18:33;2.70;99.90
7216;DHT22;3649;48.798;9.798;2022-12-18T14:21:03;2.70;99.90
7216;DHT22;3649;48.798;9.798;2022-12-18T14:23:41;2.60;99.90
7216;DHT22;3649;48.798;9.798;2022-12-18T14:26:29;2.60;99.90
7216;DHT22;3649;48.798;9.798;2022-12-18T14:28:58;2.60;99.90
7216;DHT22;3649;48.798;9.798;2022-12-18T14:31:29;2.60;99.90
7216;DHT22;3649;48.798;9.798;2022-12-18T14:33:57;2.60;99.90
7216;DHT22;3649;48.798;9.798;2022-12-18T14:36:26;2.60;99.90
7216;DHT22;3649;48.798;9.798;2022-12-18T14:38:55;2.60;99.90
7216;DHT22;3649;48.798;9.798;2022-12-18T14:41:23;2.50;99.90
7216;DHT22;3649;48.798;9.798;2022-12-18T14:43:52;2.50;99.90
7216;DHT22;3649;48.798;9.798;2022-12-18T14:51:49;2.60;99.90
7216;DHT22;3649;48.798;9.798;2022-12-18T14:54:18;2.60;99.90
7216;DHT22;3649;48.798;9.798;2022-12-18T14:56:48;4.00;99.90
7216;DHT22;3649;48.798;9.798;2022-12-18T14:59:20;2.60;99.90
7216;DHT22;3649;48.798;9.798;2022-12-18T15:04:39;4.50;99.90
7216;DHT22;3649;48.798;9.798;2022-12-18T15:09:38;2.40;99.90
7216;DHT22;3649;48.798;9.798;2022-12-18T15:12:15;2.40;99.90
7216;DHT22;3649;48.798;9.798;2022-12-18T15:14:46;2.50;99.90
7216;DHT22;3649;48.798;9.798;2022-12-18T15:17:22;2.50;99.90
7216;DHT22;3649;48.798;9.798;2022-12-18T15:19:53;2.50;99.90
7216;DHT22;3649;48.798;9.798;2022-12-18T15:22:30;2.40;99.90
7216;DHT22;3649;48.798;9.798;2022-12-18T15:25:00;2.40;99.90
7216;DHT22;3649;48.798;9.798;2022-12-18T15:27:32;2.30;99.90
7216;DHT22;3649;48.798;9.798;2022-12-18T15:32:38;2.30;99.90
7216;DHT22;3649;48.798;9.798;2022-12-18T15:35:22;2.30;99.90
7216;DHT22;3649;48.798;9.798;2022-12-18T15:37:51;2.30;99.90
7216;DHT22;3649;48.798;9.798;2022-12-18T15:40:22;2.20;99.90
7216;DHT22;3649;48.798;9.798;2022-12-18T15:42:53;2.20;99.90
7216;DHT22;3649;48.798;9.798;2022-12-18T15:45:39;2.10;99.90
7216;DHT22;3649;48.798;9.798;2022-12-18T15:48:20;2.20;99.90
7216;DHT22;3649;48.798;9.798;2022-12-18T15:50:48;2.10;99.90
7216;DHT22;3649;48.798;9.798;2022-12-18T15:53:16;2.10;99.90
7216;DHT22;3649;48.798;9.798;2022-12-18T15:55:43;2.10;99.90
7216;DHT22;3649;48.798;9.798;2022-12-18T15:58:29;2.10;99.90
7216;DHT22;3649;48.798;9.798;2022-12-18T16:00:57;2.00;99.90
7216;DHT22;3649;48.798;9.798;2022-12-18T16:03:27;2.10;99.90
7216;DHT22;3649;48.798;9.798;2022-12-18T16:05:57;2.10;99.90
7216;DHT22;3649;48.798;9.798;2022-12-18T16:08:30;2.50;99.90
7216;DHT22;3649;48.798;9.798;2022-12-18T16:10:58;2.00;99.90
7216;DHT22;3649;48.798;9.798;2022-12-18T16:13:24;3.20;99.90
7216;DHT22;3649;48.798;9.798;2022-12-18T16:15:51;2.00;99.90
7216;DHT22;3649;48.798;9.798;2022-12-18T16:18:18;2.00;99.90
7216;DHT22;3649;48.798;9.798;2022-12-18T16:20:45;2.00;99.90
7216;DHT22;3649;48.798;9.798;2022-12-18T16:23:12;1.90;99.90
7216;DHT22;3649;48.798;9.798;2022-12-18T16:25:39;1.90;99.90
7216;DHT22;3649;48.798;9.798;2022-12-18T16:28:06;1.80;99.90
7216;DHT22;3649;48.798;9.798;2022-12-18T16:30:33;1.70;99.90
7216;DHT22;3649;48.798;9.798;2022-12-18T16:33:03;1.60;99.90
7216;DHT22;3649;48.798;9.798;2022-12-18T16:35:33;1.60;99.90
7216;DHT22;3649;48.798;9.798;2022-12-18T16:38:03;1.60;99.90
7216;DHT22;3649;48.798;9.798;2022-12-18T16:40:31;1.70;99.90
7216;DHT22;3649;48.798;9.798;2022-12-18T16:42:58;1.70;99.90
7216;DHT22;3649;48.798;9.798;2022-12-18T16:45:25;3.50;99.90
7216;DHT22;3649;48.798;9.798;2022-12-18T16:47:52;1.70;99.90
7216;DHT22;3649;48.798;9.798;2022-12-18T16:50:21;2.00;99.90
7216;DHT22;3649;48.798;9.798;2022-12-18T16:52:48;1.60;99.90
7216;DHT22;3649;48.798;9.798;2022-12-18T16:55:15;1.60;99.90
7216;DHT22;3649;48.798;9.798;2022-12-18T16:57:42;1.60;99.90
7216;DHT22;3649;48.798;9.798;2022-12-18T17:00:09;1.60;99.90
7216;DHT22;3649;48.798;9.798;2022-12-18T17:02:37;1.50;99.90
7216;DHT22;3649;48.798;9.798;2022-12-18T17:05:05;1.70;99.90
7216;DHT22;3649;48.798;9.798;2022-12-18T17:07:32;1.50;99.90
7216;DHT22;3649;48.798;9.798;2022-12-18T17:10:00;1.50;99.90
7216;DHT22;3649;48.798;9.798;2022-12-18T17:12:27;1.50;99.90
7216;DHT22;3649;48.798;9.798;2022-12-18T17:14:54;1.50;99.90
7216;DHT22;3649;48.798;9.798;2022-12-18T17:17:21;1.50;99.90
7216;DHT22;3649;48.798;9.798;2022-12-18T17:19:50;1.40;99.90
7216;DHT22;3649;48.798;9.798;2022-12-18T17:22:18;1.40;99.90
7216;DHT22;3649;48.798;9.798;2022-12-18T17:24:46;1.30;99.90
7216;DHT22;3649;48.798;9.798;2022-12-18T17:27:13;1.30;99.90
7216;DHT22;3649;48.798;9.798;2022-12-18T17:29:40;1.30;99.90
7216;DHT22;3649;48.798;9.798;2022-12-18T17:32:13;1.20;99.90
7216;DHT22;3649;48.798;9.798;2022-12-18T17:34:40;1.10;99.90
7216;DHT22;3649;48.798;9.798;2022-12-18T17:37:08;1.10;99.90
7216;DHT22;3649;48.798;9.798;2022-12-18T17:39:35;1.10;99.90
7216;DHT22;3649;48.798;9.798;2022-12-18T17:42:02;1.10;99.90
7216;DHT22;3649;48.798;9.798;2022-12-18T17:44:30;1.10;99.90
7216;DHT22;3649;48.798;9.798;2022-12-18T17:46:57;1.10;99.90
7216;DHT22;3649;48.798;9.798;2022-12-18T17:49:24;1.00;99.90
7216;DHT22;3649;48.798;9.798;2022-12-18T17:51:53;1.00;99.90
7216;DHT22;3649;48.798;9.798;2022-12-18T17:54:20;1.10;99.90
7216;DHT22;3649;48.798;9.798;2022-12-18T17:56:47;1.10;99.90
7216;DHT22;3649;48.798;9.798;2022-12-18T17:59:35;2.20;99.90
7216;DHT22;3649;48.798;9.798;2022-12-18T18:02:01;1.20;99.90
7216;DHT22;3649;48.798;9.798;2022-12-18T18:04:28;1.10;99.90